Terminal Aerodrome Forecast
Issued by NWS

Home | Current Version | Previous Version | Text Only | Print | Product List | Glossary On
Versions: 1 2 3 4 5 6 7 8 9 10 11 12 13 14 15 16 17
000
FTUS43 KAPX 200500
TAFAPN
TAF
KAPN 200526Z 2006/2106 19010KT P6SM VCSH OVC040 WS015/23040KT
     FM201600 21010G18KT 6SM -SHRA OVC025
     FM210000 23005KT 4SM BR OVC015=

USA.gov is the U.S. government's official web portal to all federal, state and local government web resources and services.